Time;durP1;ratioP1;P1;durP2;ratioP2;P2;SDS_P1;SDS_P2;PMS_P1;PMS_P2;Temp;Humidity;BMP_temperature;BMP_pressure;BME280_temperature;BME280_humidity;BME280_pressure;Samples;Min_cycle;Max_cycle;Signal;HPM_P1;HPM_P2
2023/10/27 00:01:16;;;;;;;24.00;22.80;;;;;;;20.15;64.45;96490.34;4897533;28;104258;-71
2023/10/27 00:03:44;;;;;;;22.57;21.53;;;;;;;20.56;64.40;96494.22;4900736;28;103576;-71
2023/10/27 00:06:14;;;;;;;25.03;23.80;;;;;;;20.58;63.81;96492.13;4903111;28;102771;-71
2023/10/27 00:08:42;;;;;;;21.10;20.00;;;;;;;20.18;65.42;96484.53;4902335;28;102832;-71
2023/10/27 00:11:10;;;;;;;19.60;18.58;;;;;;;19.86;66.53;96479.56;4904216;28;104210;-70
2023/10/27 00:13:38;;;;;;;18.02;17.02;;;;;;;19.92;66.03;96487.53;4902350;28;103303;-71
2023/10/27 00:16:10;;;;;;;18.42;17.48;;;;;;;19.69;66.40;96490.03;4901890;28;102712;-70
2023/10/27 00:18:38;;;;;;;16.63;15.73;;;;;;;19.39;67.58;96484.53;4900904;28;104206;-70
2023/10/27 00:21:06;;;;;;;18.27;17.17;;;;;;;19.74;67.02;96487.50;4901708;28;103447;-71
2023/10/27 00:23:35;;;;;;;19.20;18.25;;;;;;;19.94;65.58;96474.72;4902105;28;103495;-70
2023/10/27 00:26:06;;;;;;;18.50;17.58;;;;;;;19.62;66.19;96473.22;4903024;28;102696;-70
2023/10/27 00:28:34;;;;;;;20.17;19.17;;;;;;;19.65;65.96;96476.25;4900298;28;104490;-70
2023/10/27 00:31:02;;;;;;;20.00;19.00;;;;;;;19.89;65.19;96484.47;4901616;28;104380;-70
2023/10/27 00:33:30;;;;;;;25.27;24.08;;;;;;;20.10;64.35;96479.47;4901285;28;102912;-70
2023/10/27 00:35:58;;;;;;;18.40;17.50;;;;;;;19.42;67.01;96475.25;4903645;28;102973;-71
2023/10/27 00:38:26;;;;;;;19.63;18.63;;;;;;;19.46;66.73;96473.75;4902818;28;104094;-70
2023/10/27 00:40:55;;;;;;;16.58;15.77;;;;;;;19.39;66.76;96475.69;4902527;28;104213;-70
2023/10/27 00:43:24;;;;;;;19.98;18.98;;;;;;;19.50;66.51;96478.47;4901999;28;103217;-70
2023/10/27 00:45:53;;;;;;;16.15;15.13;;;;;;;18.97;69.29;96487.91;4901067;28;102781;-70
2023/10/27 00:48:22;;;;;;;21.20;20.20;;;;;;;19.54;66.39;96482.31;4902357;28;104116;-70
2023/10/27 00:50:49;;;;;;;17.33;16.52;;;;;;;19.60;66.45;96485.97;4899012;28;104279;-70
2023/10/27 00:53:20;;;;;;;19.60;18.70;;;;;;;19.65;66.47;96478.09;4901788;28;103714;-70
2023/10/27 00:55:51;;;;;;;19.35;18.38;;;;;;;19.88;65.44;96474.78;4902048;28;102702;-70
2023/10/27 00:58:21;;;;;;;21.60;20.60;;;;;;;19.90;64.60;96470.03;4900464;28;104130;-70
2023/10/27 01:00:52;;;;;;;18.37;17.37;;;;;;;19.55;65.69;96470.59;4904149;28;103293;-70
2023/10/27 01:03:22;;;;;;;18.27;17.48;;;;;;;19.63;65.49;96469.47;4900912;28;104353;-70
2023/10/27 01:05:50;;;;;;;20.88;19.88;;;;;;;19.51;65.59;96463.19;4900831;28;102719;-70
2023/10/27 01:08:20;;;;;;;19.50;18.55;;;;;;;19.78;64.81;96461.09;4900605;28;104000;-70
2023/10/27 01:10:48;;;;;;;20.73;19.92;;;;;;;19.84;64.46;96455.69;4900765;28;103738;-70
2023/10/27 01:13:16;;;;;;;25.10;23.90;;;;;;;19.96;63.68;96458.41;4901424;28;103281;-70
2023/10/27 01:15:45;;;;;;;26.50;25.40;;;;;;;19.93;63.53;96459.69;4914934;28;102857;-70
2023/10/27 01:18:13;;;;;;;24.60;23.42;;;;;;;19.73;63.58;96466.31;4900486;28;103159;-70
2023/10/27 01:20:41;;;;;;;23.02;21.92;;;;;;;19.46;64.25;96455.00;4899999;28;104687;-71
2023/10/27 01:23:11;;;;;;;17.00;16.10;;;;;;;19.15;66.78;96466.56;4901425;28;104350;-70
2023/10/27 01:25:39;;;;;;;20.50;19.57;;;;;;;19.19;65.95;96461.59;4900129;28;102999;-70
2023/10/27 01:28:08;;;;;;;21.77;20.77;;;;;;;19.51;65.15;96455.16;4901691;28;102764;-70
2023/10/27 01:30:37;;;;;;;24.95;23.75;;;;;;;19.46;63.61;96453.16;4899742;28;104188;-70
2023/10/27 01:33:05;;;;;;;22.30;21.30;;;;;;;19.61;64.45;96450.97;4900867;28;104778;-70
2023/10/27 01:35:33;;;;;;;25.03;23.83;;;;;;;19.64;64.15;96447.84;4902572;28;102958;-70
2023/10/27 01:38:01;;;;;;;21.52;20.58;;;;;;;19.61;64.39;96448.28;4901577;28;103779;-70
2023/10/27 01:40:30;;;;;;;22.83;21.83;;;;;;;19.55;63.77;96442.97;4898565;28;103282;-69
2023/10/27 01:42:58;;;;;;;22.13;21.13;;;;;;;19.66;64.67;96448.44;4901948;28;103272;-69
2023/10/27 01:45:26;;;;;;;24.35;23.25;;;;;;;19.69;63.61;96452.53;4915651;28;102771;-69
2023/10/27 01:47:55;;;;;;;23.42;22.45;;;;;;;19.75;64.02;96445.47;4901275;28;104195;-69
2023/10/27 01:50:23;;;;;;;26.70;25.60;;;;;;;19.83;63.37;96437.13;4901257;28;104173;-69
2023/10/27 01:52:51;;;;;;;30.23;29.02;;;;;;;20.01;62.69;96437.16;4915824;28;103355;-69
2023/10/27 01:55:19;;;;;;;32.70;31.30;;;;;;;20.11;62.31;96443.59;4900590;28;102740;-69
2023/10/27 01:57:48;;;;;;;29.05;27.85;;;;;;;19.98;62.60;96442.94;4900261;28;104170;-69
2023/10/27 02:00:17;;;;;;;27.50;26.38;;;;;;;19.93;62.11;96442.81;4900768;28;103316;-69
2023/10/27 02:02:46;;;;;;;26.20;25.10;;;;;;;20.04;62.59;96434.03;4911123;28;104220;-69
2023/10/27 02:05:14;;;;;;;28.20;27.00;;;;;;;19.94;62.83;96431.03;4915749;28;103052;-69
2023/10/27 02:07:43;;;;;;;29.30;28.00;;;;;;;19.91;62.10;96429.63;4899704;28;103969;-69
2023/10/27 02:10:11;;;;;;;26.27;25.17;;;;;;;19.71;62.60;96434.38;4917015;28;104258;-69
2023/10/27 02:12:39;;;;;;;27.30;26.20;;;;;;;19.87;62.86;96433.81;4912590;28;104132;-69
2023/10/27 02:15:10;;;;;;;30.97;29.60;;;;;;;19.93;61.78;96427.53;4916971;28;102730;-69
2023/10/27 02:17:39;;;;;;;27.77;26.58;;;;;;;19.65;62.48;96421.84;4901995;28;103743;-69
2023/10/27 02:20:09;;;;;;;28.02;26.92;;;;;;;19.93;62.07;96422.16;4902981;28;103081;-69
2023/10/27 02:22:41;;;;;;;32.35;31.08;;;;;;;20.00;61.93;96430.97;4902215;28;103446;-69
2023/10/27 02:25:09;;;;;;;34.42;32.97;;;;;;;19.90;62.37;96427.16;4917796;28;102820;-69
2023/10/27 02:27:40;;;;;;;32.25;30.95;;;;;;;20.04;61.99;96426.78;4902018;28;104107;-69
2023/10/27 02:30:10;;;;;;;33.10;31.80;;;;;;;20.10;61.27;96430.41;4902692;28;103278;-69
2023/10/27 02:32:38;;;;;;;24.00;22.92;;;;;;;19.40;63.65;96429.09;4899755;28;104460;-69
2023/10/27 02:35:07;;;;;;;24.80;23.80;;;;;;;19.54;63.66;96422.59;4902281;28;102663;-69
2023/10/27 02:37:35;;;;;;;22.77;21.77;;;;;;;19.57;63.30;96425.66;4902003;28;104120;-70
2023/10/27 02:40:03;;;;;;;27.40;26.25;;;;;;;19.89;62.76;96423.66;4901175;28;104308;-69
2023/10/27 02:42:32;;;;;;;28.92;27.83;;;;;;;19.72;62.53;96425.28;4902679;28;103881;-69
2023/10/27 02:45:00;;;;;;;25.80;24.80;;;;;;;19.70;62.67;96422.03;4903012;28;102652;-69
2023/10/27 02:47:30;;;;;;;23.65;22.52;;;;;;;19.00;64.65;96417.91;4902674;28;103701;-69
2023/10/27 02:49:58;;;;;;;22.73;21.73;;;;;;;19.15;64.67;96420.25;4899710;28;104196;-69
2023/10/27 02:52:26;;;;;;;21.13;20.17;;;;;;;19.19;64.42;96418.78;4903285;28;103496;-69
2023/10/27 02:54:54;;;;;;;19.15;18.25;;;;;;;19.09;66.17;96412.06;4902387;28;102923;-69
2023/10/27 02:57:22;;;;;;;19.85;18.95;;;;;;;19.31;64.94;96406.31;4902582;28;104205;-69
2023/10/27 02:59:50;;;;;;;20.88;19.95;;;;;;;19.33;64.58;96406.91;4899683;28;103226;-69
2023/10/27 03:02:18;;;;;;;19.88;19.02;;;;;;;19.33;64.30;96404.25;4899621;28;103284;-69
2023/10/27 03:04:48;;;;;;;16.40;15.60;;;;;;;19.20;65.02;96401.69;4898245;28;103519;-69
2023/10/27 03:07:16;;;;;;;16.75;15.95;;;;;;;18.87;67.49;96405.44;4900462;28;104092;-69
2023/10/27 03:09:44;;;;;;;16.77;15.98;;;;;;;18.72;67.20;96404.97;4895035;28;104102;-61
2023/10/27 03:12:12;;;;;;;18.10;17.23;;;;;;;18.85;67.45;96409.38;4894922;28;104175;-61
2023/10/27 03:14:41;;;;;;;16.00;15.20;;;;;;;18.21;69.76;96409.53;4896425;28;102874;-61
2023/10/27 03:17:11;;;;;;;18.02;16.92;;;;;;;18.00;70.84;96407.16;4898700;28;104610;-61
2023/10/27 03:19:39;;;;;;;15.45;14.45;;;;;;;18.51;69.18;96405.28;4899789;28;103809;-61
2023/10/27 03:22:08;;;;;;;13.73;12.93;;;;;;;18.32;70.87;96400.84;4896948;28;104117;-62
2023/10/27 03:24:36;;;;;;;15.77;15.07;;;;;;;18.62;69.70;96411.78;4898090;28;102811;-62
2023/10/27 03:27:05;;;;;;;14.50;13.77;;;;;;;18.46;69.95;96399.75;4927722;28;104182;-62
2023/10/27 03:29:33;;;;;;;16.10;15.30;;;;;;;18.62;69.36;96396.56;4915032;28;103903;-62
2023/10/27 03:32:01;;;;;;;18.88;17.88;;;;;;;18.91;68.71;96403.16;4900030;28;103289;-62
2023/10/27 03:34:32;;;;;;;16.98;16.08;;;;;;;18.84;68.23;96395.19;4916560;28;102933;-62
2023/10/27 03:37:02;;;;;;;19.42;18.63;;;;;;;19.28;66.86;96399.56;4900827;28;102711;-62
2023/10/27 03:39:32;;;;;;;22.40;21.40;;;;;;;19.62;65.85;96399.03;4903649;28;103728;-62
2023/10/27 03:42:00;;;;;;;22.77;21.87;;;;;;;19.79;64.32;96404.59;4903970;28;103479;-62
2023/10/27 03:44:28;;;;;;;22.63;21.67;;;;;;;19.78;63.89;96408.34;4905000;28;102886;-62
2023/10/27 03:46:57;;;;;;;21.80;20.83;;;;;;;19.82;63.84;96401.47;4902510;28;104926;-62
2023/10/27 03:49:25;;;;;;;22.90;21.90;;;;;;;19.83;63.52;96395.09;4904809;28;103944;-62
2023/10/27 03:51:53;;;;;;;20.48;19.48;;;;;;;19.70;64.41;96391.75;4900883;28;104459;-66
2023/10/27 03:54:24;;;;;;;20.67;19.80;;;;;;;19.91;63.40;96369.84;4902364;28;102936;-62
2023/10/27 03:56:53;;;;;;;20.93;20.03;;;;;;;19.89;63.57;96366.59;4901788;28;102919;-62
2023/10/27 03:59:21;;;;;;;21.15;20.15;;;;;;;19.84;63.78;96358.41;4900781;28;103787;-63
2023/10/27 04:01:49;;;;;;;22.92;21.90;;;;;;;19.90;63.24;96366.34;4903951;28;103271;-62
2023/10/27 04:04:17;;;;;;;22.60;21.63;;;;;;;19.87;63.37;96364.16;4904672;28;102806;-62
2023/10/27 04:06:45;;;;;;;19.33;18.30;;;;;;;19.46;64.63;96369.34;4904057;28;102801;-62
2023/10/27 04:09:13;;;;;;;17.33;16.48;;;;;;;19.18;65.87;96368.97;4904872;28;104095;-62
2023/10/27 04:11:42;;;;;;;16.35;15.50;;;;;;;19.19;66.52;96378.63;4903331;28;103354;-62
2023/10/27 04:14:11;;;;;;;17.07;16.17;;;;;;;19.06;66.78;96375.03;4904824;28;102918;-62
2023/10/27 04:16:39;;;;;;;17.52;16.73;;;;;;;19.40;65.67;96372.88;4904037;28;104062;-62
2023/10/27 04:19:07;;;;;;;17.90;17.00;;;;;;;19.30;64.99;96378.75;4904368;28;104076;-61
2023/10/27 04:21:35;;;;;;;19.10;18.17;;;;;;;19.18;65.45;96375.13;4905302;28;103073;-62
2023/10/27 04:24:03;;;;;;;18.88;17.92;;;;;;;19.00;66.63;96383.13;4903361;28;102765;-62
2023/10/27 04:26:31;;;;;;;17.58;16.67;;;;;;;18.82;67.38;96386.56;4897965;28;102992;-62
2023/10/27 04:28:59;;;;;;;18.73;17.52;;;;;;;18.79;66.97;96391.53;4900041;28;103334;-62
2023/10/27 04:31:28;;;;;;;18.50;17.60;;;;;;;18.79;67.27;96380.81;4900563;28;103364;-62
2023/10/27 04:33:56;;;;;;;18.85;18.05;;;;;;;19.11;66.22;96383.22;4902689;28;102748;-62
2023/10/27 04:36:27;;;;;;;17.65;16.77;;;;;;;19.03;66.62;96383.50;4903242;28;103604;-62
2023/10/27 04:38:55;;;;;;;19.40;18.52;;;;;;;18.86;66.85;96386.97;4904379;28;104158;-62
2023/10/27 04:41:23;;;;;;;17.95;17.15;;;;;;;19.32;66.15;96386.53;4903328;28;103313;-62
2023/10/27 04:43:51;;;;;;;17.98;17.17;;;;;;;19.47;64.81;96379.84;4904802;28;102750;-60
2023/10/27 04:46:19;;;;;;;16.45;15.73;;;;;;;19.31;65.12;96382.25;4905763;28;103138;-60
2023/10/27 04:48:51;;;;;;;19.60;18.77;;;;;;;19.59;64.87;96377.25;4903836;28;103401;-60
2023/10/27 04:52:22;;;;;;;19.43;18.43;;;;;;;29.59;63.76;96393.31;4952170;28;105367;-61
2023/10/27 04:54:50;;;;;;;22.00;21.13;;;;;;;29.68;62.97;96392.78;4957970;28;104607;-61
2023/10/27 04:57:18;;;;;;;26.35;25.25;;;;;;;29.88;62.88;96386.38;4955057;28;103975;-61
2023/10/27 04:59:51;;;;;;;25.80;24.70;;;;;;;29.93;62.59;96395.38;4956286;28;103212;-61
2023/10/27 05:07:07;;;;;;;19.40;18.60;;;;;;;19.83;63.29;96392.41;4976294;27;102951;-61
2023/10/27 05:09:35;;;;;;;22.13;21.23;;;;;;;19.79;63.04;96393.88;4976729;28;103737;-61
2023/10/27 05:12:03;;;;;;;23.35;22.45;;;;;;;19.93;62.93;96395.38;4966783;27;103519;-61
2023/10/27 05:14:32;;;;;;;24.52;23.52;;;;;;;19.97;62.22;96391.22;4954819;28;103287;-60
2023/10/27 05:18:14;;;;;;;24.50;23.50;;;;;;;19.93;62.12;96400.72;5021370;27;102633;-61
2023/10/27 05:20:44;;;;;;;57.03;52.83;;;;;;;20.35;68.79;96404.34;5017564;27;104007;-66
2023/10/27 05:36:11;;;;;;;14.23;5.88;;;;;;;25.69;41.20;96371.63;5072527;27;102867;-63
2023/10/27 05:41:59;;;;;;;3.78;2.00;;;;;;;17.82;57.01;96343.19;5122756;27;102496;-62
2023/10/27 05:44:27;;;;;;;3.85;2.00;;;;;;;16.76;59.56;96343.78;5098130;27;103092;-66
2023/10/27 05:46:55;;;;;;;3.80;2.00;;;;;;;15.76;61.77;96359.72;5080306;27;104476;-67
2023/10/27 05:49:22;;;;;;;4.07;2.05;;;;;;;15.05;62.61;96371.50;5097478;27;103270;-67
2023/10/27 05:51:51;;;;;;;3.03;1.63;;;;;;;14.45;64.52;96378.59;5097633;27;102655;-67
2023/10/27 05:54:20;;;;;;;2.67;1.48;;;;;;;13.99;65.52;96376.22;5098692;27;103107;-67
2023/10/27 05:56:48;;;;;;;4.07;2.03;;;;;;;13.69;66.02;96382.72;5089457;27;104055;-69
2023/10/27 05:59:18;;;;;;;3.83;1.85;;;;;;;13.39;67.15;96383.91;5058086;27;102999;-67
2023/10/27 06:01:48;;;;;;;3.35;1.70;;;;;;;13.16;67.72;96382.19;5050630;27;102601;-67
2023/10/27 06:04:34;;;;;;;3.25;1.80;;;;;;;12.84;68.90;96377.41;5028621;27;104159;-67
2023/10/27 06:07:02;;;;;;;2.78;1.70;;;;;;;12.58;69.53;96384.94;5032575;27;104090;-67
2023/10/27 06:09:31;;;;;;;4.15;2.13;;;;;;;12.40;70.03;96388.56;5033517;27;103244;-67
2023/10/27 06:11:59;;;;;;;3.70;2.17;;;;;;;12.22;70.74;96392.22;5041249;27;102908;-67
2023/10/27 06:14:28;;;;;;;3.65;2.30;;;;;;;12.04;71.72;96399.28;5041495;27;103703;-67
2023/10/27 06:16:56;;;;;;;4.78;2.42;;;;;;;11.94;71.85;96407.00;5041021;27;103413;-67
2023/10/27 06:19:25;;;;;;;4.38;2.85;;;;;;;11.89;72.08;96412.19;5031891;27;104401;-63
2023/10/27 06:22:00;;;;;;;5.13;2.33;;;;;;;11.84;72.24;96412.09;5053440;27;102628;-62
2023/10/27 06:24:28;;;;;;;4.82;3.20;;;;;;;11.71;73.04;96413.97;5053518;27;103036;-63
2023/10/27 06:31:26;;;;;;;6.65;6.05;;;;;;;11.39;74.07;96438.13;5028690;27;103198;-63
2023/10/27 06:33:54;;;;;;;5.25;4.22;;;;;;;11.37;74.52;96442.03;5043184;27;102748;-63
2023/10/27 06:36:22;;;;;;;4.00;3.40;;;;;;;11.19;75.05;96437.66;5038192;27;102641;-63
2023/10/27 06:38:52;;;;;;;6.28;4.30;;;;;;;11.27;75.31;96439.97;5037852;27;103986;-62
2023/10/27 06:41:20;;;;;;;4.80;2.60;;;;;;;11.13;75.92;96444.66;5033896;27;103268;-67
2023/10/27 06:43:48;;;;;;;3.25;2.25;;;;;;;11.17;75.23;96435.22;5037919;27;102661;-67
2023/10/27 06:46:16;;;;;;;4.60;2.88;;;;;;;11.18;75.59;96441.34;5031633;27;104159;-67
2023/10/27 06:48:47;;;;;;;2.17;1.73;;;;;;;11.17;75.87;96440.50;5036135;27;103224;-66
2023/10/27 06:51:15;;;;;;;5.57;2.25;;;;;;;11.24;75.39;96441.22;5035818;27;103040;-68
2023/10/27 06:53:43;;;;;;;4.93;2.67;;;;;;;11.24;75.85;96451.00;5025490;27;103102;-68
2023/10/27 06:56:11;;;;;;;3.58;2.00;;;;;;;11.19;75.69;96448.25;5025817;27;102694;-67
2023/10/27 06:58:39;;;;;;;5.95;2.83;;;;;;;11.20;75.67;96444.56;5024450;27;103361;-67
2023/10/27 07:01:07;;;;;;;5.30;2.83;;;;;;;11.16;76.37;96444.22;5006551;27;103342;-67
2023/10/27 07:03:37;;;;;;;4.75;2.72;;;;;;;11.15;76.22;96449.72;5025177;27;102708;-67
2023/10/27 07:06:07;;;;;;;5.70;3.33;;;;;;;11.23;76.13;96449.41;5024257;27;104232;-67
2023/10/27 07:08:37;;;;;;;6.68;4.00;;;;;;;11.25;75.98;96457.94;5007173;27;104268;-67
2023/10/27 07:11:05;;;;;;;5.32;2.90;;;;;;;11.23;76.07;96460.00;5028059;27;103245;-68
2023/10/27 07:13:33;;;;;;;8.55;5.35;;;;;;;11.29;75.80;96461.72;5020824;27;102771;-68
2023/10/27 07:16:01;;;;;;;7.70;4.43;;;;;;;11.30;76.21;96462.56;5028453;27;102705;-67
2023/10/27 07:18:29;;;;;;;8.15;5.03;;;;;;;11.31;76.29;96472.94;5023695;27;103225;-68
2023/10/27 07:20:59;;;;;;;8.95;6.40;;;;;;;11.32;76.11;96471.06;5028468;27;104241;-66
2023/10/27 07:23:30;;;;;;;11.40;7.03;;;;;;;11.29;76.37;96474.97;5015368;27;102651;-66
2023/10/27 07:25:58;;;;;;;10.43;6.25;;;;;;;11.26;76.03;96470.94;5010166;27;102943;-66
2023/10/27 07:28:26;;;;;;;6.15;3.70;;;;;;;11.31;75.89;96472.94;5017488;27;103329;-66
2023/10/27 07:30:55;;;;;;;7.32;4.60;;;;;;;11.24;76.40;96467.72;5008953;27;103217;-66
2023/10/27 07:33:25;;;;;;;16.45;7.95;;;;;;;11.22;76.26;96463.69;5006819;27;102769;-66
2023/10/27 07:35:53;;;;;;;16.17;8.13;;;;;;;11.19;75.96;96470.25;5014432;27;104313;-67
2023/10/27 07:38:22;;;;;;;13.32;8.43;;;;;;;11.22;75.90;96469.00;5017575;27;103005;-67
2023/10/27 07:40:56;;;;;;;21.25;13.25;;;;;;;11.23;75.79;96484.66;5003921;27;103290;-67
2023/10/27 07:43:24;;;;;;;19.13;11.57;;;;;;;11.19;75.85;96488.00;5018017;27;102690;-67
2023/10/27 07:45:54;;;;;;;14.18;9.32;;;;;;;11.25;75.72;96484.44;5012062;27;102743;-67
2023/10/27 07:48:22;;;;;;;14.40;8.82;;;;;;;11.28;75.90;96489.28;5009405;27;104618;-67
2023/10/27 07:50:50;;;;;;;10.43;6.25;;;;;;;11.40;75.56;96476.84;5012193;27;104077;-63
2023/10/27 07:53:18;;;;;;;25.73;16.30;;;;;;;11.40;75.31;96482.16;5019334;27;102561;-63
2023/10/27 07:55:46;;;;;;;14.98;9.40;;;;;;;11.50;75.36;96491.38;5007425;27;104171;-64
2023/10/27 07:58:15;;;;;;;23.70;14.63;;;;;;;11.53;75.47;96501.53;5015859;27;103446;-64
2023/10/27 08:00:43;;;;;;;16.88;10.00;;;;;;;11.58;75.28;96504.31;5008901;27;103124;-64
2023/10/27 08:03:11;;;;;;;9.32;5.53;;;;;;;11.54;75.20;96511.09;5011798;27;102678;-64
2023/10/27 08:05:39;;;;;;;12.13;7.47;;;;;;;11.58;75.49;96514.91;5008798;27;102790;-64
2023/10/27 08:08:08;;;;;;;21.80;13.40;;;;;;;11.62;75.11;96516.09;5007315;27;104218;-63
2023/10/27 08:10:38;;;;;;;10.48;5.20;;;;;;;11.66;75.05;96522.56;5011909;27;104418;-63
2023/10/27 08:13:06;;;;;;;5.72;3.20;;;;;;;11.57;75.39;96518.63;5005971;27;102644;-63
2023/10/27 08:15:36;;;;;;;6.57;3.78;;;;;;;11.64;74.96;96529.13;5010549;27;104095;-64
2023/10/27 08:18:05;;;;;;;2.97;1.88;;;;;;;11.60;74.98;96539.38;5003283;27;104199;-67
2023/10/27 08:20:33;;;;;;;6.20;2.03;;;;;;;11.73;74.89;96548.97;5008206;27;104515;-67
2023/10/27 08:23:01;;;;;;;2.65;1.90;;;;;;;11.74;74.35;96546.06;5011321;27;102796;-67
2023/10/27 08:25:29;;;;;;;3.30;1.95;;;;;;;11.76;73.97;96551.16;5010412;27;104079;-66
2023/10/27 08:27:59;;;;;;;2.92;1.65;;;;;;;11.77;73.77;96552.78;5006052;27;104212;-67
2023/10/27 08:30:27;;;;;;;2.33;1.40;;;;;;;11.81;73.25;96561.09;5008505;27;103939;-67
2023/10/27 08:32:56;;;;;;;2.15;1.38;;;;;;;11.81;73.71;96571.69;5007095;27;102803;-68
2023/10/27 08:35:25;;;;;;;1.30;1.17;;;;;;;11.80;73.26;96567.41;5009391;27;103109;-67
2023/10/27 08:37:53;;;;;;;1.88;1.25;;;;;;;11.76;73.78;96565.22;5008931;27;103207;-67
2023/10/27 08:40:21;;;;;;;2.33;1.20;;;;;;;11.68;72.98;96581.44;5013754;27;104189;-67
2023/10/27 08:42:50;;;;;;;0.80;0.80;;;;;;;11.71;73.39;96577.53;5008506;27;103725;-67
2023/10/27 08:45:18;;;;;;;1.33;1.10;;;;;;;11.56;72.84;96591.22;5008276;27;102814;-64
2023/10/27 08:47:45;;;;;;;1.05;1.00;;;;;;;11.43;72.20;96582.41;5011282;27;103416;-64
2023/10/27 08:50:18;;;;;;;1.33;0.90;;;;;;;11.58;72.71;96581.19;5015340;27;103202;-67
2023/10/27 08:52:48;;;;;;;1.20;1.10;;;;;;;11.48;72.51;96581.75;5009565;27;102709;-67
2023/10/27 08:55:17;;;;;;;4.43;1.52;;;;;;;11.63;72.89;96581.31;5013589;27;102850;-67
2023/10/27 08:57:45;;;;;;;1.45;1.27;;;;;;;11.65;73.37;96587.22;5014116;27;103320;-67
2023/10/27 09:00:13;;;;;;;0.98;0.98;;;;;;;11.60;72.92;96597.69;5011120;27;103512;-67
2023/10/27 09:02:42;;;;;;;0.70;0.70;;;;;;;11.61;73.00;96588.72;5006317;27;102971;-67
2023/10/27 09:05:11;;;;;;;0.93;0.88;;;;;;;11.57;72.79;96592.84;5008396;27;103918;-67
2023/10/27 09:07:41;;;;;;;2.40;1.40;;;;;;;11.65;73.01;96592.53;5008127;27;103859;-67
2023/10/27 09:10:10;;;;;;;1.58;1.10;;;;;;;11.52;72.90;96601.47;5014915;27;103202;-67
2023/10/27 09:12:39;;;;;;;1.13;1.02;;;;;;;11.69;73.07;96604.28;5009120;27;102634;-67
2023/10/27 09:15:09;;;;;;;1.83;0.95;;;;;;;11.71;73.22;96612.00;5004641;27;102684;-67
2023/10/27 09:17:54;;;;;;;2.08;1.20;;;;;;;11.86;73.33;96601.78;5014205;27;103749;-67
2023/10/27 09:20:23;;;;;;;2.22;1.30;;;;;;;11.84;73.37;96618.97;5004568;27;103197;-67
2023/10/27 09:23:00;;;;;;;3.33;1.80;;;;;;;11.78;73.66;96621.50;5009872;27;102872;-67
2023/10/27 09:25:29;;;;;;;2.65;1.30;;;;;;;11.86;73.95;96622.22;5013575;27;103817;-67
2023/10/27 09:27:58;;;;;;;3.38;1.38;;;;;;;11.84;73.82;96625.06;5008098;27;103292;-67
2023/10/27 09:30:26;;;;;;;2.38;1.50;;;;;;;11.87;73.85;96629.09;5001431;27;104022;-67
2023/10/27 09:32:55;;;;;;;2.33;1.40;;;;;;;11.88;74.31;96625.44;5014300;27;102876;-67
2023/10/27 09:35:27;;;;;;;2.05;1.33;;;;;;;11.92;74.46;96642.50;5009894;27;103939;-67
2023/10/27 09:37:55;;;;;;;2.13;1.42;;;;;;;11.63;74.95;96660.06;5005056;27;103719;-67
2023/10/27 09:40:25;;;;;;;1.77;1.17;;;;;;;11.54;75.53;96647.13;5007949;27;103613;-67
2023/10/27 09:42:55;;;;;;;1.52;1.13;;;;;;;11.70;75.29;96645.69;5011955;27;102570;-67
2023/10/27 09:45:27;;;;;;;1.55;1.10;;;;;;;11.62;75.51;96646.00;5014332;27;104037;-67
2023/10/27 09:48:03;;;;;;;1.60;1.17;;;;;;;11.62;76.20;96659.28;5007610;27;104434;-67
2023/10/27 09:50:32;;;;;;;2.22;1.40;;;;;;;11.80;75.95;96660.25;5009601;27;103315;-67
2023/10/27 09:53:01;;;;;;;2.70;1.40;;;;;;;11.49;76.27;96670.03;5012727;27;102786;-67
2023/10/27 09:55:32;;;;;;;1.17;1.10;;;;;;;11.57;76.46;96673.19;5002640;27;102742;-67
2023/10/27 09:58:01;;;;;;;2.67;1.40;;;;;;;11.62;76.47;96664.56;5005910;27;103661;-67
2023/10/27 10:00:31;;;;;;;1.30;1.10;;;;;;;11.69;76.43;96675.88;5017753;27;103247;-67
2023/10/27 10:03:01;;;;;;;1.30;1.17;;;;;;;11.77;76.49;96686.16;5004630;27;102746;-67
2023/10/27 10:06:10;;;;;;;2.22;1.27;;;;;;;11.74;76.99;96678.66;5011657;27;104075;-67
2023/10/27 10:08:38;;;;;;;1.48;1.23;;;;;;;11.88;76.64;96683.78;5008565;27;103974;-63
2023/10/27 10:11:14;;;;;;;2.25;1.27;;;;;;;11.94;76.92;96681.03;5010956;27;103368;-63
2023/10/27 10:13:42;;;;;;;1.83;1.25;;;;;;;11.99;76.49;96683.06;5009205;27;102861;-63
2023/10/27 10:16:11;;;;;;;2.63;1.48;;;;;;;12.07;76.15;96682.72;5007691;27;103044;-64
2023/10/27 10:18:53;;;;;;;1.65;1.33;;;;;;;12.28;76.31;96691.19;5013231;27;103245;-63
2023/10/27 10:21:35;;;;;;;4.53;1.60;;;;;;;12.21;77.01;96687.81;5011947;27;103209;-63
2023/10/27 10:24:13;;;;;;;2.40;1.70;;;;;;;12.15;76.53;96686.09;5013800;27;102607;-63
2023/10/27 10:27:10;;;;;;;3.78;1.60;;;;;;;12.09;75.99;96693.94;5003330;27;104289;-63
2023/10/27 10:29:38;;;;;;;4.55;1.65;;;;;;;12.04;76.20;96692.97;5007186;27;104063;-63
2023/10/27 10:32:36;;;;;;;2.55;1.60;;;;;;;11.84;76.25;96703.84;5008914;27;103223;-62
2023/10/27 10:35:26;;;;;;;2.35;1.20;;;;;;;11.80;76.64;96700.03;5006617;27;103359;-63
2023/10/27 10:37:54;;;;;;;3.17;1.38;;;;;;;12.06;76.35;96691.72;5003593;27;102815;-64
2023/10/27 10:40:23;;;;;;;2.33;1.42;;;;;;;12.39;75.75;96690.41;5009309;27;104334;-62
2023/10/27 10:43:23;;;;;;;2.20;1.30;;;;;;;12.80;75.60;96695.03;5007774;27;104224;-61
2023/10/27 10:45:56;;;;;;;2.60;1.63;;;;;;;13.27;74.67;96684.38;5006929;27;102734;-63
2023/10/27 10:48:26;;;;;;;4.25;1.50;;;;;;;13.37;73.38;96679.25;5004652;27;103710;-63
2023/10/27 10:50:59;;;;;;;2.45;1.45;;;;;;;13.51;73.07;96674.50;5015490;27;103731;-63
2023/10/27 10:53:26;;;;;;;2.70;1.40;;;;;;;14.07;71.58;96671.25;4991750;27;104195;-63
2023/10/27 10:55:58;;;;;;;2.63;1.50;;;;;;;14.21;70.54;96666.41;5008002;27;103051;-63
2023/10/27 10:58:30;;;;;;;2.17;1.27;;;;;;;14.25;69.42;96667.53;5004062;27;103626;-63
2023/10/27 11:00:59;;;;;;;2.75;1.70;;;;;;;14.60;67.68;96666.47;5011436;27;103757;-64
2023/10/27 11:03:31;;;;;;;3.42;1.70;;;;;;;14.56;68.29;96662.69;5015316;27;103334;-63
2023/10/27 11:06:01;;;;;;;4.97;2.30;;;;;;;14.85;67.61;96670.59;5011557;27;102624;-64
2023/10/27 11:08:31;;;;;;;2.85;1.60;;;;;;;14.73;66.94;96663.50;5000738;27;103746;-64
2023/10/27 11:11:04;;;;;;;;;;;;;;;14.46;66.20;96665.19;5009285;27;103251;-66
2023/10/27 11:13:35;;;;;;;4.72;1.60;;;;;;;14.77;66.06;96668.34;5002483;27;103347;-67
2023/10/27 11:16:13;;;;;;;2.65;1.52;;;;;;;14.72;65.50;96661.88;5009617;27;102808;-67
2023/10/27 11:18:43;;;;;;;4.65;1.83;;;;;;;14.59;65.83;96654.19;5013953;27;103076;-67
2023/10/27 11:21:15;;;;;;;3.40;1.50;;;;;;;14.74;63.75;96659.78;5006986;27;104010;-67
2023/10/27 11:23:43;;;;;;;3.53;1.70;;;;;;;14.63;64.39;96652.66;4966971;27;103249;-67
2023/10/27 11:26:12;;;;;;;4.93;1.83;;;;;;;14.74;64.18;96654.47;5010934;28;102752;-67
2023/10/27 11:28:43;;;;;;;4.72;1.80;;;;;;;14.37;64.10;96644.31;5004915;28;102951;-67
2023/10/27 11:31:13;;;;;;;6.65;1.85;;;;;;;14.17;63.63;96650.09;5007782;28;104167;-67
2023/10/27 11:33:58;;;;;;;3.13;1.65;;;;;;;14.73;60.84;96647.50;5002687;28;103304;-67
2023/10/27 11:36:26;;;;;;;2.40;1.60;;;;;;;14.89;63.11;96655.72;5006941;28;102738;-67
2023/10/27 11:38:55;;;;;;;5.80;1.92;;;;;;;14.77;62.71;96657.69;5000345;28;103913;-67
2023/10/27 11:41:23;;;;;;;2.00;1.30;;;;;;;14.78;64.24;96656.63;5004630;28;104395;-67
2023/10/27 11:43:52;;;;;;;4.15;1.65;;;;;;;14.55;62.63;96655.75;5005758;28;103464;-64
2023/10/27 11:46:21;;;;;;;4.07;1.70;;;;;;;14.35;62.93;96662.38;5012731;28;102770;-64
2023/10/27 11:48:49;;;;;;;4.32;1.48;;;;;;;14.26;64.21;96661.94;5007314;28;104251;-64
2023/10/27 11:51:18;;;;;;;3.80;1.90;;;;;;;14.20;62.91;96654.97;5010234;28;103116;-63
2023/10/27 11:53:46;;;;;;;2.78;1.63;;;;;;;14.37;61.87;96665.59;5009461;28;103493;-64
2023/10/27 11:56:14;;;;;;;5.93;2.03;;;;;;;14.00;60.90;96659.94;5009998;28;102729;-67